createdAt,value
2023-11-03T00:01:57.203Z,100.00
2023-11-03T00:07:00.041Z,100.00
2023-11-03T00:12:04.133Z,100.00
2023-11-03T00:17:09.024Z,100.00
2023-11-03T00:22:11.892Z,100.00
2023-11-03T00:27:15.591Z,100.00
2023-11-03T00:32:19.877Z,100.00
2023-11-03T00:37:22.693Z,100.00
2023-11-03T00:42:25.485Z,100.00
2023-11-03T00:47:29.629Z,100.00
2023-11-03T00:52:32.470Z,100.00
2023-11-03T00:57:37.907Z,100.00
2023-11-03T01:02:44.893Z,100.00
2023-11-03T01:07:48.047Z,100.00
2023-11-03T01:12:52.261Z,100.00
2023-11-03T01:17:56.587Z,100.00
2023-11-03T01:23:00.329Z,100.00
2023-11-03T01:28:03.197Z,100.00
2023-11-03T01:33:07.889Z,100.00
2023-11-03T01:38:11.825Z,100.00
2023-11-03T01:43:15.462Z,100.00
2023-11-03T01:48:20.059Z,100.00
2023-11-03T01:53:23.184Z,100.00
2023-11-03T01:58:26.984Z,100.00
2023-11-03T02:03:32.091Z,100.00
2023-11-03T02:08:35.607Z,100.00
2023-11-03T02:13:38.535Z,100.00
2023-11-03T02:18:42.764Z,100.00
2023-11-03T02:23:46.974Z,100.00
2023-11-03T02:28:50.675Z,100.00
2023-11-03T02:33:53.558Z,100.00
2023-11-03T02:38:57.894Z,100.00
2023-11-03T02:44:00.711Z,100.00
2023-11-03T02:49:04.162Z,100.00
2023-11-03T02:54:09.247Z,100.00
2023-11-03T02:59:13.772Z,100.00
2023-11-03T03:04:16.614Z,100.00
2023-11-03T03:09:20.868Z,100.00
2023-11-03T03:14:24.213Z,100.00
2023-11-03T03:19:27.204Z,100.00
2023-11-03T03:24:31.413Z,100.00
2023-11-03T03:29:34.212Z,100.00
2023-11-03T03:34:37.471Z,100.00
2023-11-03T03:39:41.764Z,100.00
2023-11-03T03:44:46.758Z,100.00
2023-11-03T03:49:49.551Z,100.00
2023-11-03T03:54:53.685Z,100.00
2023-11-03T03:59:56.629Z,100.00
2023-11-03T04:05:02.238Z,100.00
2023-11-03T04:10:07.995Z,100.00
2023-11-03T04:15:11.897Z,100.00
2023-11-03T04:20:15.520Z,100.00
2023-11-03T04:25:20.012Z,100.00
2023-11-03T04:30:22.949Z,100.00
2023-11-03T04:35:25.757Z,100.00
2023-11-03T04:40:32.557Z,100.00
2023-11-03T04:45:35.489Z,100.00
2023-11-03T04:50:38.651Z,100.00
2023-11-03T04:55:42.808Z,100.00
2023-11-03T05:00:46.261Z,100.00
2023-11-03T05:05:49.416Z,100.00
2023-11-03T05:10:53.544Z,100.00
2023-11-03T05:15:56.721Z,100.00
2023-11-03T05:21:00.139Z,100.00
2023-11-03T05:26:04.877Z,100.00
2023-11-03T05:31:08.501Z,100.00
2023-11-03T05:36:12.662Z,100.00
2023-11-03T05:41:17.390Z,100.00
2023-11-03T05:46:20.498Z,100.00
2023-11-03T05:51:23.377Z,100.00
2023-11-03T05:56:27.934Z,100.00
2023-11-03T06:01:34.120Z,100.00
2023-11-03T06:06:36.991Z,100.00
2023-11-03T06:11:41.589Z,100.00
2023-11-03T06:16:44.623Z,100.00
2023-11-03T06:21:47.797Z,100.00
2023-11-03T06:26:52.554Z,100.00
2023-11-03T06:31:55.750Z,100.00
2023-11-03T06:36:59.621Z,100.00
2023-11-03T06:42:06.910Z,100.00
2023-11-03T06:47:09.791Z,100.00
2023-11-03T06:52:12.973Z,100.00
2023-11-03T06:57:18.173Z,100.00
2023-11-03T07:02:21.684Z,100.00
2023-11-03T07:07:24.588Z,100.00
2023-11-03T07:12:28.951Z,100.00
2023-11-03T07:17:31.903Z,100.00
2023-11-03T07:22:35.394Z,100.00
2023-11-03T07:27:39.751Z,100.00
2023-11-03T07:32:46.207Z,100.00
2023-11-03T07:37:49.204Z,100.00
2023-11-03T07:42:54.408Z,100.00
2023-11-03T07:47:57.577Z,100.00
2023-11-03T07:53:00.465Z,100.00
2023-11-03T07:58:06.870Z,100.00
2023-11-03T08:03:09.851Z,100.00
2023-11-03T08:08:15.215Z,100.00
2023-11-03T08:13:20.429Z,100.00
2023-11-03T08:18:24.497Z,100.00
2023-11-03T08:23:27.429Z,100.00
2023-11-03T08:28:33.869Z,100.00
2023-11-03T08:33:36.698Z,100.00
2023-11-03T08:38:39.602Z,100.00
2023-11-03T08:43:45.209Z,100.00
2023-11-03T08:48:49.242Z,100.00
2023-11-03T08:53:52.209Z,100.00
2023-11-03T08:58:58.170Z,100.00
2023-11-03T09:04:03.019Z,100.00
2023-11-03T09:09:07.404Z,100.00
2023-11-03T09:14:12.932Z,100.00
2023-11-03T09:19:15.806Z,100.00
2023-11-03T09:24:18.891Z,100.00
2023-11-03T09:29:24.096Z,100.00
2023-11-03T09:34:30.389Z,100.00
2023-11-03T09:39:36.998Z,100.00
2023-11-03T09:44:42.081Z,100.00
2023-11-03T09:49:45.328Z,100.00
2023-11-03T09:54:48.843Z,100.00
2023-11-03T09:59:54.878Z,100.00
2023-11-03T10:04:57.959Z,100.00
2023-11-03T10:10:01.500Z,100.00
2023-11-03T10:15:10.883Z,100.00
2023-11-03T10:20:13.977Z,100.00
2023-11-03T10:25:16.974Z,100.00
2023-11-03T10:30:21.603Z,100.00
2023-11-03T10:35:24.822Z,100.00
2023-11-03T10:40:27.786Z,100.00
2023-11-03T10:45:34.615Z,100.00
2023-11-03T10:50:44.242Z,100.00
2023-11-03T10:55:57.085Z,100.00
2023-11-03T11:01:07.703Z,100.00
2023-11-03T11:06:21.832Z,98.87
2023-11-03T11:11:27.975Z,99.28
2023-11-03T11:16:34.689Z,99.49
2023-11-03T11:21:45.640Z,97.74
2023-11-03T11:26:50.655Z,98.61
2023-11-03T11:32:03.937Z,97.11
2023-11-03T11:37:31.781Z,98.48
2023-11-03T11:42:37.076Z,97.11
2023-11-03T11:47:46.311Z,97.38
2023-11-03T11:52:50.945Z,97.73
2023-11-03T11:57:56.381Z,97.82
2023-11-03T12:03:01.197Z,98.39
2023-11-03T12:08:05.131Z,100.00
2023-11-03T12:13:11.068Z,100.00
2023-11-03T12:18:17.697Z,92.28
2023-11-03T12:23:20.532Z,91.84
2023-11-03T12:28:25.007Z,92.64
2023-11-03T12:33:29.379Z,92.70
2023-11-03T12:38:32.223Z,91.60
2023-11-03T12:43:37.074Z,91.05
2023-11-03T12:48:41.659Z,91.77
2023-11-03T12:53:48.627Z,93.53
2023-11-03T12:58:51.451Z,92.82
2023-11-03T13:03:55.646Z,87.28
2023-11-03T13:08:58.713Z,88.97
2023-11-03T13:14:01.520Z,89.42
2023-11-03T13:19:06.826Z,88.67
2023-11-03T13:24:12.616Z,89.30
2023-11-03T13:29:16.189Z,90.11
2023-11-03T13:34:22.247Z,89.29
2023-11-03T13:39:25.281Z,89.83
2023-11-03T13:44:28.105Z,91.06
2023-11-03T13:49:35.741Z,91.51
2023-11-03T13:54:38.923Z,93.60
2023-11-03T13:59:41.846Z,92.73
2023-11-03T14:04:46.302Z,92.36
2023-11-03T14:09:49.744Z,92.68
2023-11-03T14:14:54.381Z,94.17
2023-11-03T14:19:58.550Z,90.96
2023-11-03T14:25:01.479Z,92.10
2023-11-03T14:30:04.430Z,91.99
2023-11-03T14:35:11.719Z,91.93
2023-11-03T14:40:16.847Z,92.62
2023-11-03T14:45:21.692Z,93.20
2023-11-03T14:50:27.196Z,94.61
2023-11-03T14:55:30.392Z,95.67
2023-11-03T15:00:36.651Z,97.13
2023-11-03T15:05:42.132Z,97.80
2023-11-03T15:10:47.245Z,96.69
2023-11-03T15:15:53.193Z,97.97
2023-11-03T15:20:58.073Z,97.41
2023-11-03T15:26:01.173Z,98.57
2023-11-03T15:31:06.642Z,98.44
2023-11-03T15:36:11.752Z,97.88
2023-11-03T15:41:14.745Z,98.79
2023-11-03T15:46:20.581Z,98.70
2023-11-03T15:51:24.859Z,98.83
2023-11-03T15:56:27.787Z,99.16
2023-11-03T16:01:30.723Z,99.68
2023-11-03T16:06:35.004Z,100.00
2023-11-03T16:11:41.976Z,100.00
2023-11-03T16:16:45.002Z,100.00
2023-11-03T16:21:49.696Z,100.00
2023-11-03T16:26:52.665Z,100.00
2023-11-03T16:31:56.149Z,100.00
2023-11-03T16:37:02.201Z,100.00
2023-11-03T16:42:05.613Z,100.00
2023-11-03T16:47:08.485Z,100.00
2023-11-03T16:52:12.766Z,100.00
2023-11-03T16:57:16.041Z,100.00
2023-11-03T17:02:19.869Z,100.00
2023-11-03T17:07:25.082Z,100.00
2023-11-03T17:12:27.999Z,100.00
2023-11-03T17:17:30.982Z,100.00
2023-11-03T17:22:35.589Z,100.00
2023-11-03T17:27:39.107Z,100.00
2023-11-03T17:32:43.898Z,100.00
2023-11-03T17:37:48.571Z,100.00
2023-11-03T17:42:52.020Z,100.00
2023-11-03T17:47:55.037Z,100.00
2023-11-03T17:52:59.349Z,100.00
2023-11-03T17:58:04.297Z,100.00
2023-11-03T18:03:07.686Z,100.00
2023-11-03T18:08:12.879Z,100.00
2023-11-03T18:13:16.326Z,100.00
2023-11-03T18:18:19.176Z,100.00
2023-11-03T18:23:23.324Z,100.00
2023-11-03T18:28:27.188Z,100.00
2023-11-03T18:33:30.988Z,100.00
2023-11-03T18:38:35.208Z,100.00
2023-11-03T18:43:38.084Z,100.00
2023-11-03T18:48:43.246Z,100.00
2023-11-03T18:55:22.862Z,100.00
2023-11-03T19:00:22.173Z,100.00
2023-11-03T19:05:37.474Z,100.00
2023-11-03T19:09:58.133Z,100.00
2023-11-03T19:15:01.203Z,100.00
2023-11-03T19:20:04.826Z,100.00
2023-11-03T19:25:11.830Z,100.00
2023-11-03T19:30:16.356Z,100.00
2023-11-03T19:35:19.908Z,100.00
2023-11-03T19:40:24.127Z,100.00
2023-11-03T19:45:28.109Z,100.00
2023-11-03T19:50:33.537Z,100.00
2023-11-03T19:55:37.931Z,100.00
2023-11-03T20:00:43.790Z,100.00
2023-11-03T20:05:47.372Z,100.00
2023-11-03T20:10:51.911Z,100.00
2023-11-03T20:15:55.263Z,100.00
2023-11-03T20:20:59.719Z,100.00
2023-11-03T20:26:04.097Z,100.00
2023-11-03T20:31:07.074Z,100.00
2023-11-03T20:36:11.252Z,100.00
2023-11-03T20:41:15.624Z,100.00
2023-11-03T20:46:18.380Z,100.00
2023-11-03T20:51:22.128Z,100.00
2023-11-03T20:56:27.582Z,100.00
2023-11-03T21:01:30.704Z,100.00
2023-11-03T21:06:36.694Z,100.00
2023-11-03T21:11:41.169Z,100.00
2023-11-03T21:16:44.784Z,100.00
2023-11-03T21:21:48.405Z,100.00
2023-11-03T21:26:53.554Z,100.00
2023-11-03T21:31:56.457Z,100.00
2023-11-03T21:37:00.149Z,100.00
2023-11-03T21:42:05.655Z,100.00
2023-11-03T21:47:08.635Z,100.00
2023-11-03T21:52:11.538Z,100.00
2023-11-03T21:57:15.843Z,100.00
2023-11-03T22:02:18.765Z,100.00
2023-11-03T22:07:21.543Z,100.00
2023-11-03T22:12:25.778Z,100.00
2023-11-03T22:17:28.608Z,100.00
2023-11-03T22:22:34.633Z,100.00
2023-11-03T22:27:38.995Z,100.00
2023-11-03T22:32:42.101Z,100.00
2023-11-03T22:37:45.026Z,100.00
2023-11-03T22:42:49.349Z,100.00
2023-11-03T22:47:53.813Z,100.00
2023-11-03T22:52:56.732Z,100.00
2023-11-03T22:58:01.733Z,100.00
2023-11-03T23:03:05.881Z,100.00
2023-11-03T23:08:08.794Z,100.00
2023-11-03T23:13:12.937Z,100.00
2023-11-03T23:18:15.960Z,100.00
2023-11-03T23:23:19.133Z,100.00
2023-11-03T23:28:23.284Z,100.00
2023-11-03T23:33:26.509Z,100.00
2023-11-03T23:38:29.366Z,100.00
2023-11-03T23:43:33.503Z,100.00
2023-11-03T23:48:36.551Z,100.00
2023-11-03T23:53:40.112Z,100.00
2023-11-03T23:58:48.527Z,100.00
